createdAt,value
2022-09-22T00:01:37.884Z,14.48
2022-09-22T00:04:08.478Z,14.67
2022-09-22T00:06:41.137Z,14.61
2022-09-22T00:09:12.515Z,14.62
2022-09-22T00:11:43.545Z,14.61
2022-09-22T00:14:20.256Z,14.66
2022-09-22T00:16:51.967Z,14.67
2022-09-22T00:19:23.309Z,14.28
2022-09-22T00:21:53.121Z,14.86
2022-09-22T00:24:24.041Z,14.90
2022-09-22T00:26:57.726Z,14.90
2022-09-22T00:29:28.042Z,14.91
2022-09-22T00:31:57.189Z,14.97
2022-09-22T00:34:28.508Z,15.03
2022-09-22T00:36:58.277Z,15.03
2022-09-22T00:39:27.549Z,15.04
2022-09-22T00:41:55.825Z,15.07
2022-09-22T00:44:38.407Z,14.94
2022-09-22T00:47:23.018Z,15.05
2022-09-22T00:49:56.583Z,14.83
2022-09-22T00:52:31.904Z,14.99
2022-09-22T00:55:06.333Z,14.94
2022-09-22T00:57:38.181Z,14.82
2022-09-22T01:00:10.198Z,14.75
2022-09-22T01:02:39.338Z,14.69
2022-09-22T01:05:09.337Z,14.66
2022-09-22T01:07:39.092Z,14.58
2022-09-22T01:10:08.678Z,14.55
2022-09-22T01:12:38.552Z,14.37
2022-09-22T01:15:23.495Z,14.25
2022-09-22T01:18:12.726Z,14.17
2022-09-22T01:21:21.012Z,14.03
2022-09-22T01:24:42.628Z,13.81
2022-09-22T01:27:49.795Z,13.76
2022-09-22T01:30:25.818Z,13.81
2022-09-22T01:33:17.938Z,13.71
2022-09-22T01:36:00.243Z,13.68
2022-09-22T01:38:35.824Z,13.79
2022-09-22T01:41:09.840Z,13.82
2022-09-22T01:43:44.118Z,13.81
2022-09-22T01:46:19.428Z,13.85
2022-09-22T01:48:51.559Z,13.94
2022-09-22T01:51:27.169Z,14.00
2022-09-22T01:54:04.091Z,14.14
2022-09-22T01:56:34.907Z,14.16
2022-09-22T01:59:07.215Z,13.98
2022-09-22T02:01:42.395Z,14.05
2022-09-22T02:04:18.028Z,14.15
2022-09-22T02:06:53.172Z,14.20
2022-09-22T02:09:25.598Z,14.18
2022-09-22T02:11:53.958Z,14.23
2022-09-22T02:14:22.278Z,14.18
2022-09-22T02:16:52.224Z,14.28
2022-09-22T02:19:24.787Z,14.22
2022-09-22T02:21:53.185Z,14.21
2022-09-22T02:24:33.849Z,14.21
2022-09-22T02:27:07.069Z,14.25
2022-09-22T02:29:41.480Z,14.06
2022-09-22T02:32:15.872Z,14.24
2022-09-22T02:34:45.620Z,14.31
2022-09-22T02:37:23.571Z,14.28
2022-09-22T02:40:03.850Z,14.26
2022-09-22T02:42:41.123Z,14.25
2022-09-22T02:45:16.380Z,14.10
2022-09-22T02:47:51.677Z,13.97
2022-09-22T02:50:23.884Z,13.87
2022-09-22T02:52:54.611Z,13.79
2022-09-22T02:55:22.883Z,13.82
2022-09-22T02:57:51.132Z,13.68
2022-09-22T03:00:19.544Z,13.52
2022-09-22T03:02:49.104Z,13.47
2022-09-22T03:05:17.592Z,13.45
2022-09-22T03:07:45.920Z,13.47
2022-09-22T03:10:14.169Z,13.72
2022-09-22T03:13:08.959Z,13.48
2022-09-22T03:15:32.359Z,13.56
2022-09-22T03:18:01.962Z,13.60
2022-09-22T03:20:30.417Z,13.52
2022-09-22T03:22:58.642Z,13.66
2022-09-22T03:25:26.862Z,13.67
2022-09-22T03:27:55.174Z,13.64
2022-09-22T03:30:23.489Z,13.63
2022-09-22T03:32:51.791Z,13.58
2022-09-22T03:35:21.482Z,13.66
2022-09-22T03:37:49.763Z,13.64
2022-09-22T03:40:18.244Z,13.69
2022-09-22T03:42:46.743Z,13.67
2022-09-22T03:45:15.944Z,13.56
2022-09-22T03:47:44.448Z,13.68
2022-09-22T03:50:13.549Z,13.58
2022-09-22T03:52:44.981Z,13.55
2022-09-22T03:55:13.782Z,13.61
2022-09-22T03:57:43.860Z,13.54
2022-09-22T04:00:15.055Z,13.13
2022-09-22T04:02:43.424Z,13.68
2022-09-22T04:05:12.191Z,13.68
2022-09-22T04:07:42.128Z,13.70
2022-09-22T04:10:10.784Z,13.63
2022-09-22T04:12:39.087Z,13.63
2022-09-22T04:15:09.474Z,13.64
2022-09-22T04:17:38.048Z,13.01
2022-09-22T04:20:08.397Z,13.65
2022-09-22T04:22:37.171Z,13.56
2022-09-22T04:25:09.089Z,13.58
2022-09-22T04:27:37.674Z,13.54
2022-09-22T04:30:07.668Z,13.47
2022-09-22T04:32:35.925Z,13.47
2022-09-22T04:35:04.188Z,13.39
2022-09-22T04:37:32.514Z,13.43
2022-09-22T04:40:00.849Z,13.42
2022-09-22T04:42:30.520Z,13.40
2022-09-22T04:45:01.991Z,13.42
2022-09-22T04:47:30.950Z,13.43
2022-09-22T04:49:59.369Z,13.44
2022-09-22T04:52:28.029Z,13.40
2022-09-22T04:54:56.286Z,13.32
2022-09-22T04:57:24.638Z,13.41
2022-09-22T04:59:54.357Z,13.46
2022-09-22T05:02:22.614Z,13.48
2022-09-22T05:04:50.866Z,13.50
2022-09-22T05:07:19.227Z,13.55
2022-09-22T05:09:47.665Z,13.56
2022-09-22T05:12:15.897Z,13.50
2022-09-22T05:14:44.140Z,13.51
2022-09-22T05:17:14.101Z,13.49
2022-09-22T05:19:42.377Z,13.55
2022-09-22T05:22:10.875Z,13.56
2022-09-22T05:24:42.456Z,13.57
2022-09-22T05:27:10.670Z,13.59
2022-09-22T05:29:38.839Z,13.53
2022-09-22T05:32:07.746Z,13.53
2022-09-22T05:34:37.402Z,13.56
2022-09-22T05:37:05.754Z,13.46
2022-09-22T05:39:34.068Z,13.38
2022-09-22T05:42:02.332Z,13.40
2022-09-22T05:44:30.530Z,13.38
2022-09-22T05:46:58.977Z,13.31
2022-09-22T05:49:27.281Z,13.31
2022-09-22T05:51:57.421Z,13.31
2022-09-22T05:54:26.012Z,13.23
2022-09-22T05:56:54.292Z,13.30
2022-09-22T05:59:22.593Z,13.33
2022-09-22T06:01:50.884Z,13.43
2022-09-22T06:04:19.640Z,13.57
2022-09-22T06:06:47.881Z,13.64
2022-09-22T06:09:17.577Z,13.75
2022-09-22T06:11:45.852Z,13.81
2022-09-22T06:14:14.052Z,13.90
2022-09-22T06:16:43.209Z,13.81
2022-09-22T06:19:11.622Z,14.09
2022-09-22T06:21:39.813Z,14.28
2022-09-22T06:24:08.163Z,14.61
2022-09-22T06:26:37.732Z,14.82
2022-09-22T06:29:06.327Z,14.97
2022-09-22T06:31:34.757Z,15.45
2022-09-22T06:34:06.912Z,15.93
2022-09-22T06:36:36.070Z,16.27
2022-09-22T06:39:05.423Z,16.43
2022-09-22T06:41:35.053Z,16.63
2022-09-22T06:44:08.083Z,16.46
2022-09-22T06:46:37.877Z,16.31
2022-09-22T06:49:06.087Z,16.62
2022-09-22T06:51:37.117Z,17.09
2022-09-22T06:54:07.434Z,17.28
2022-09-22T06:56:39.862Z,16.81
2022-09-22T06:59:12.848Z,16.27
2022-09-22T07:01:43.700Z,16.00
2022-09-22T07:04:12.762Z,16.10
2022-09-22T07:06:42.604Z,15.96
2022-09-22T07:09:12.366Z,15.88
2022-09-22T07:11:40.772Z,15.82
2022-09-22T07:14:12.625Z,15.32
2022-09-22T07:16:41.384Z,15.56
2022-09-22T07:19:10.032Z,15.74
2022-09-22T07:21:38.402Z,15.90
2022-09-22T07:24:08.656Z,16.31
2022-09-22T07:26:40.182Z,16.48
2022-09-22T07:29:13.627Z,16.68
2022-09-22T07:31:43.292Z,16.96
2022-09-22T07:34:12.748Z,16.87
2022-09-22T07:36:41.747Z,16.30
2022-09-22T07:39:12.559Z,16.25
2022-09-22T07:41:43.389Z,16.45
2022-09-22T07:44:33.445Z,16.35
2022-09-22T07:47:02.933Z,16.71
2022-09-22T07:49:31.357Z,16.63
2022-09-22T07:51:59.867Z,16.76
2022-09-22T07:54:28.945Z,16.98
2022-09-22T07:56:59.349Z,17.17
2022-09-22T07:59:29.233Z,17.34
2022-09-22T08:01:58.238Z,17.67
2022-09-22T08:04:26.625Z,18.00
2022-09-22T08:06:56.513Z,18.13
2022-09-22T08:09:25.606Z,17.55
2022-09-22T08:11:55.162Z,18.00
2022-09-22T08:14:24.278Z,18.27
2022-09-22T08:16:54.570Z,18.13
2022-09-22T08:19:24.927Z,18.64
2022-09-22T08:21:54.914Z,18.82
2022-09-22T08:24:24.313Z,19.03
2022-09-22T08:26:55.682Z,19.02
2022-09-22T08:29:25.457Z,19.16
2022-09-22T08:31:55.313Z,19.49
2022-09-22T08:34:23.875Z,19.76
2022-09-22T08:36:52.321Z,19.49
2022-09-22T08:39:21.235Z,19.65
2022-09-22T08:42:09.228Z,19.57
2022-09-22T08:44:43.494Z,19.40
2022-09-22T08:47:39.911Z,19.66
2022-09-22T08:50:42.822Z,19.61
2022-09-22T08:53:16.743Z,19.75
2022-09-22T08:55:50.240Z,19.69
2022-09-22T08:58:44.367Z,20.25
2022-09-22T09:01:31.309Z,20.37
2022-09-22T09:04:27.312Z,20.30
2022-09-22T09:07:07.715Z,21.35
2022-09-22T09:09:52.643Z,21.50
2022-09-22T09:12:45.129Z,21.33
2022-09-22T09:15:30.439Z,21.29
2022-09-22T09:18:07.043Z,21.48
2022-09-22T09:20:40.999Z,21.51
2022-09-22T09:23:18.900Z,21.06
2022-09-22T09:25:52.353Z,21.80
2022-09-22T09:28:27.673Z,21.87
2022-09-22T09:31:07.606Z,21.78
2022-09-22T09:33:45.262Z,22.24
2022-09-22T09:36:22.879Z,22.57
2022-09-22T09:38:56.533Z,22.52
2022-09-22T09:41:31.369Z,21.68
2022-09-22T09:44:00.863Z,22.12
2022-09-22T09:46:41.879Z,22.08
2022-09-22T09:49:15.311Z,22.64
2022-09-22T09:51:48.278Z,22.11
2022-09-22T09:54:19.752Z,21.57
2022-09-22T09:57:10.087Z,21.51
2022-09-22T09:59:58.346Z,22.04
2022-09-22T10:02:29.758Z,22.05
2022-09-22T10:05:01.199Z,21.82
2022-09-22T10:07:40.827Z,21.30
2022-09-22T10:10:33.095Z,21.56
2022-09-22T10:13:32.137Z,21.65
2022-09-22T10:16:24.931Z,20.89
2022-09-22T10:19:05.640Z,20.85
2022-09-22T10:21:36.233Z,20.73
2022-09-22T10:24:29.578Z,20.39
2022-09-22T10:26:58.119Z,20.33
2022-09-22T10:29:27.737Z,20.70
2022-09-22T10:32:07.487Z,21.44
2022-09-22T10:34:38.424Z,21.52
2022-09-22T10:37:10.506Z,22.00
2022-09-22T10:39:46.862Z,22.11
2022-09-22T10:42:32.650Z,21.57
2022-09-22T10:45:06.994Z,21.47
2022-09-22T10:47:52.848Z,21.50
2022-09-22T10:50:52.038Z,21.29
2022-09-22T10:53:42.717Z,20.83
2022-09-22T10:56:17.469Z,20.88
2022-09-22T10:59:16.383Z,21.28
2022-09-22T11:02:00.366Z,21.92
2022-09-22T11:04:55.705Z,22.58
2022-09-22T11:07:59.853Z,22.91
2022-09-22T11:10:56.737Z,22.73
2022-09-22T11:13:44.565Z,22.28
2022-09-22T11:16:39.636Z,22.62
2022-09-22T11:19:47.642Z,22.51
2022-09-22T11:22:48.869Z,22.71
2022-09-22T11:25:36.657Z,21.64
2022-09-22T11:28:24.973Z,22.15
2022-09-22T11:30:57.566Z,22.47
2022-09-22T11:34:03.378Z,22.55
2022-09-22T11:36:48.021Z,22.79
2022-09-22T11:39:38.987Z,22.94
2022-09-22T11:42:19.931Z,23.24
2022-09-22T11:45:07.702Z,23.14
2022-09-22T11:47:49.526Z,23.22
2022-09-22T11:50:49.175Z,23.39
2022-09-22T11:53:43.135Z,23.47
2022-09-22T11:56:34.232Z,23.78
2022-09-22T11:59:06.979Z,24.02
2022-09-22T12:01:40.256Z,24.10
2022-09-22T12:04:21.724Z,24.18
2022-09-22T12:06:56.813Z,24.15
2022-09-22T12:09:36.855Z,23.81
2022-09-22T12:12:07.698Z,23.89
2022-09-22T12:14:38.365Z,23.98
2022-09-22T12:17:10.461Z,23.99
2022-09-22T12:19:54.030Z,23.82
2022-09-22T12:22:31.233Z,23.76
2022-09-22T12:24:59.552Z,23.77
2022-09-22T12:27:30.178Z,23.83
2022-09-22T12:30:00.274Z,23.67
2022-09-22T12:32:36.124Z,23.66
2022-09-22T12:35:07.692Z,23.07
2022-09-22T12:37:39.731Z,23.22
2022-09-22T12:40:28.015Z,23.35
2022-09-22T12:42:56.486Z,23.61
2022-09-22T12:45:34.176Z,23.67
2022-09-22T12:48:10.615Z,23.88
2022-09-22T12:50:43.640Z,23.67
2022-09-22T12:53:25.902Z,23.72
2022-09-22T12:55:55.682Z,23.15
2022-09-22T12:58:46.045Z,23.53
2022-09-22T13:01:39.539Z,23.00
2022-09-22T13:04:17.102Z,23.16
2022-09-22T13:07:01.978Z,23.36
2022-09-22T13:09:34.002Z,23.08
2022-09-22T13:12:30.956Z,22.85
2022-09-22T13:15:18.247Z,22.72
2022-09-22T13:17:49.477Z,22.63
2022-09-22T13:20:22.940Z,22.19
2022-09-22T13:22:54.621Z,22.36
2022-09-22T13:25:26.721Z,22.17
2022-09-22T13:28:12.765Z,22.33
2022-09-22T13:30:43.769Z,22.57
2022-09-22T13:33:25.326Z,22.79
2022-09-22T13:36:02.890Z,22.84
2022-09-22T13:38:37.453Z,23.08
2022-09-22T13:41:12.054Z,23.19
2022-09-22T13:43:44.336Z,23.21
2022-09-22T13:46:22.168Z,23.36
2022-09-22T13:48:52.267Z,23.32
2022-09-22T13:51:20.763Z,23.44
2022-09-22T13:53:53.812Z,23.42
2022-09-22T13:56:24.517Z,23.42
2022-09-22T13:58:56.989Z,23.48
2022-09-22T14:01:28.690Z,23.39
2022-09-22T14:03:58.003Z,23.49
2022-09-22T14:06:29.064Z,23.22
2022-09-22T14:09:00.358Z,23.42
2022-09-22T14:11:32.355Z,23.39
2022-09-22T14:14:02.768Z,23.24
2022-09-22T14:16:35.749Z,23.24
2022-09-22T14:19:08.306Z,23.18
2022-09-22T14:21:46.127Z,23.13
2022-09-22T14:24:16.114Z,23.02
2022-09-22T14:26:49.967Z,23.08
2022-09-22T14:29:23.174Z,22.98
2022-09-22T14:31:55.386Z,23.00
2022-09-22T14:34:31.199Z,22.91
2022-09-22T14:37:01.832Z,22.87
2022-09-22T14:39:34.194Z,22.98
2022-09-22T14:42:11.859Z,23.02
2022-09-22T14:44:50.076Z,23.05
2022-09-22T14:47:27.914Z,22.93
2022-09-22T14:50:16.841Z,22.86
2022-09-22T14:52:54.461Z,22.88
2022-09-22T14:55:31.913Z,22.86
2022-09-22T14:58:06.105Z,22.84
2022-09-22T15:00:58.395Z,22.82
2022-09-22T15:03:30.652Z,22.81
2022-09-22T15:06:08.759Z,22.71
2022-09-22T15:08:37.377Z,22.68
2022-09-22T15:11:07.381Z,22.65
2022-09-22T15:13:40.974Z,22.73
2022-09-22T15:16:40.753Z,22.67
2022-09-22T15:19:13.251Z,22.75
2022-09-22T15:21:48.419Z,22.72
2022-09-22T15:24:26.914Z,22.69
2022-09-22T15:27:00.044Z,22.73
2022-09-22T15:29:32.372Z,22.65
2022-09-22T15:32:06.781Z,22.59
2022-09-22T15:34:35.069Z,22.60
2022-09-22T15:37:04.644Z,22.57
2022-09-22T15:39:33.257Z,22.50
2022-09-22T15:42:04.779Z,22.47
2022-09-22T15:44:35.871Z,22.36
2022-09-22T15:47:04.743Z,22.29
2022-09-22T15:49:36.051Z,22.33
2022-09-22T15:52:04.948Z,22.33
2022-09-22T15:54:33.524Z,22.35
2022-09-22T15:57:05.411Z,22.37
2022-09-22T15:59:35.156Z,22.32
2022-09-22T16:02:03.580Z,22.35
2022-09-22T16:04:33.629Z,22.33
2022-09-22T16:07:06.110Z,22.23
2022-09-22T16:09:34.383Z,22.22
2022-09-22T16:12:04.573Z,22.19
2022-09-22T16:14:33.096Z,22.14
2022-09-22T16:17:01.518Z,22.15
2022-09-22T16:19:30.478Z,22.04
2022-09-22T16:21:58.776Z,21.95
2022-09-22T16:24:29.034Z,21.94
2022-09-22T16:26:57.832Z,21.79
2022-09-22T16:29:27.657Z,21.73
2022-09-22T16:31:56.247Z,21.69
2022-09-22T16:34:25.136Z,21.70
2022-09-22T16:36:53.529Z,21.65
2022-09-22T16:39:21.996Z,21.65
2022-09-22T16:41:50.531Z,21.64
2022-09-22T16:44:18.830Z,21.58
2022-09-22T16:46:48.938Z,21.53
2022-09-22T16:49:20.031Z,21.56
2022-09-22T16:51:50.596Z,21.53
2022-09-22T16:54:19.798Z,21.46
2022-09-22T16:56:49.934Z,21.44
2022-09-22T16:59:20.664Z,21.39
2022-09-22T17:01:51.031Z,21.10
2022-09-22T17:04:20.872Z,20.92
2022-09-22T17:06:49.752Z,20.84
2022-09-22T17:09:19.089Z,20.71
2022-09-22T17:11:49.447Z,20.49
2022-09-22T17:14:21.601Z,20.51
2022-09-22T17:16:53.555Z,20.48
2022-09-22T17:19:24.540Z,20.47
2022-09-22T17:21:55.253Z,20.42
2022-09-22T17:24:25.592Z,20.19
2022-09-22T17:26:56.119Z,20.23
2022-09-22T17:29:27.415Z,20.26
2022-09-22T17:31:59.567Z,20.29
2022-09-22T17:34:29.498Z,20.25
2022-09-22T17:36:58.577Z,20.17
2022-09-22T17:39:28.731Z,20.04
2022-09-22T17:41:57.819Z,20.13
2022-09-22T17:44:29.665Z,20.06
2022-09-22T17:47:17.094Z,19.92
2022-09-22T17:50:03.015Z,19.55
2022-09-22T17:52:49.048Z,19.98
2022-09-22T17:55:25.360Z,20.01
2022-09-22T17:57:56.274Z,20.03
2022-09-22T18:00:26.538Z,20.05
2022-09-22T18:02:58.879Z,19.95
2022-09-22T18:05:28.014Z,20.11
2022-09-22T18:07:58.537Z,20.17
2022-09-22T18:10:30.936Z,20.18
2022-09-22T18:12:59.899Z,20.13
2022-09-22T18:15:29.160Z,20.20
2022-09-22T18:17:58.943Z,20.16
2022-09-22T18:20:27.844Z,20.19
2022-09-22T18:22:57.867Z,19.95
2022-09-22T18:25:28.244Z,20.14
2022-09-22T18:27:57.851Z,20.06
2022-09-22T18:30:26.486Z,20.05
2022-09-22T18:32:55.103Z,20.05
2022-09-22T18:35:29.353Z,20.02
2022-09-22T18:37:57.658Z,19.52
2022-09-22T18:40:30.094Z,20.01
2022-09-22T18:42:58.814Z,19.96
2022-09-22T18:45:28.104Z,19.92
2022-09-22T18:47:59.492Z,19.81
2022-09-22T18:50:35.637Z,19.76
2022-09-22T18:53:03.929Z,19.16
2022-09-22T18:55:32.474Z,19.45
2022-09-22T18:58:01.260Z,19.52
2022-09-22T19:00:29.640Z,19.45
2022-09-22T19:02:58.474Z,19.45
2022-09-22T19:05:28.411Z,18.87
2022-09-22T19:08:00.581Z,19.31
2022-09-22T19:10:29.341Z,19.32
2022-09-22T19:12:57.821Z,19.26
2022-09-22T19:15:26.558Z,19.19
2022-09-22T19:17:54.943Z,19.20
2022-09-22T19:20:24.342Z,19.04
2022-09-22T19:22:54.998Z,19.01
2022-09-22T19:25:24.196Z,19.01
2022-09-22T19:27:53.877Z,18.28
2022-09-22T19:30:24.830Z,18.89
2022-09-22T19:32:55.482Z,18.78
2022-09-22T19:35:24.039Z,18.75
2022-09-22T19:37:54.240Z,18.74
2022-09-22T19:40:25.148Z,18.55
2022-09-22T19:42:54.107Z,18.47
2022-09-22T19:45:23.914Z,18.42
2022-09-22T19:47:52.730Z,18.39
2022-09-22T19:50:21.278Z,18.45
2022-09-22T19:52:50.057Z,18.48
2022-09-22T19:55:21.346Z,18.39
2022-09-22T19:57:52.272Z,18.28
2022-09-22T20:00:26.463Z,18.19
2022-09-22T20:02:58.997Z,18.11
2022-09-22T20:05:33.644Z,17.88
2022-09-22T20:08:03.705Z,17.84
2022-09-22T20:10:35.133Z,17.80
2022-09-22T20:13:23.673Z,17.70
2022-09-22T20:15:52.301Z,17.83
2022-09-22T20:18:21.551Z,17.92
2022-09-22T20:20:52.122Z,18.00
2022-09-22T20:23:21.855Z,17.96
2022-09-22T20:25:52.868Z,18.15
2022-09-22T20:28:21.591Z,18.21
2022-09-22T20:30:50.471Z,18.29
2022-09-22T20:33:23.542Z,18.34
2022-09-22T20:35:55.413Z,18.22
2022-09-22T20:38:24.144Z,18.28
2022-09-22T20:40:53.786Z,18.50
2022-09-22T20:43:22.366Z,18.45
2022-09-22T20:45:50.782Z,18.43
2022-09-22T20:48:20.739Z,18.37
2022-09-22T20:50:56.666Z,18.33
2022-09-22T20:53:25.248Z,18.26
2022-09-22T20:56:01.705Z,18.13
2022-09-22T20:58:32.358Z,18.11
2022-09-22T21:01:00.970Z,18.02
2022-09-22T21:03:30.078Z,17.95
2022-09-22T21:06:01.003Z,17.89
2022-09-22T21:08:47.631Z,17.65
2022-09-22T21:11:19.755Z,17.55
2022-09-22T21:13:53.333Z,17.46
2022-09-22T21:16:21.916Z,17.62
2022-09-22T21:18:51.792Z,17.72
2022-09-22T21:21:22.855Z,17.72
2022-09-22T21:23:51.915Z,17.66
2022-09-22T21:26:23.802Z,17.74
2022-09-22T21:28:52.867Z,17.67
2022-09-22T21:31:22.391Z,17.66
2022-09-22T21:33:52.408Z,17.54
2022-09-22T21:36:23.657Z,17.39
2022-09-22T21:38:57.143Z,17.57
2022-09-22T21:41:29.394Z,17.61
2022-09-22T21:43:58.462Z,17.57
2022-09-22T21:46:30.018Z,17.65
2022-09-22T21:49:01.733Z,17.51
2022-09-22T21:51:34.424Z,17.44
2022-09-22T21:54:05.561Z,17.37
2022-09-22T21:56:36.227Z,17.24
2022-09-22T21:59:04.465Z,17.22
2022-09-22T22:01:35.875Z,17.19
2022-09-22T22:04:07.751Z,16.97
2022-09-22T22:06:40.891Z,16.73
2022-09-22T22:09:15.159Z,16.76
2022-09-22T22:11:49.183Z,16.72
2022-09-22T22:14:20.201Z,16.67
2022-09-22T22:16:51.252Z,16.64
2022-09-22T22:19:22.451Z,16.57
2022-09-22T22:21:52.362Z,16.54
2022-09-22T22:24:31.549Z,16.57
2022-09-22T22:27:05.782Z,16.72
2022-09-22T22:29:36.618Z,16.79
2022-09-22T22:32:07.952Z,16.79
2022-09-22T22:34:36.566Z,16.86
2022-09-22T22:37:07.135Z,16.91
2022-09-22T22:39:36.382Z,16.95
2022-09-22T22:42:08.191Z,16.95
2022-09-22T22:44:36.801Z,16.99
2022-09-22T22:47:06.158Z,16.94
2022-09-22T22:49:34.520Z,16.89
2022-09-22T22:52:03.532Z,16.89
2022-09-22T22:54:32.214Z,17.00
2022-09-22T22:57:00.644Z,17.04
2022-09-22T22:59:30.355Z,16.96
2022-09-22T23:01:58.657Z,16.85
2022-09-22T23:04:27.281Z,16.84
2022-09-22T23:06:55.694Z,16.82
2022-09-22T23:09:24.077Z,16.74
2022-09-22T23:11:53.571Z,16.71
2022-09-22T23:14:21.959Z,16.71
2022-09-22T23:16:51.601Z,16.66
2022-09-22T23:19:20.328Z,16.67
2022-09-22T23:21:48.944Z,16.52
2022-09-22T23:24:19.027Z,16.39
2022-09-22T23:26:48.287Z,16.38
2022-09-22T23:29:16.756Z,16.44
2022-09-22T23:31:45.926Z,16.40
2022-09-22T23:34:15.779Z,16.40
2022-09-22T23:36:45.159Z,16.31
2022-09-22T23:39:13.908Z,16.33
2022-09-22T23:41:42.932Z,16.23
2022-09-22T23:44:12.291Z,16.05
2022-09-22T23:46:40.918Z,16.09
2022-09-22T23:49:09.407Z,16.00
2022-09-22T23:51:39.119Z,16.07
2022-09-22T23:54:08.786Z,16.10
2022-09-22T23:56:37.027Z,16.13
2022-09-22T23:59:05.281Z,16.09
